createdAt,value
2022-12-16T00:01:15.912Z,24.30
2022-12-16T00:03:47.747Z,26.50
2022-12-16T00:06:14.091Z,23.45
2022-12-16T00:08:40.497Z,25.52
2022-12-16T00:11:08.068Z,25.00
2022-12-16T00:13:36.269Z,26.90
2022-12-16T00:16:12.081Z,25.50
2022-12-16T00:18:39.073Z,24.58
2022-12-16T00:21:06.515Z,22.15
2022-12-16T00:23:34.815Z,29.33
2022-12-16T00:26:02.157Z,26.95
2022-12-16T00:28:28.541Z,26.92
2022-12-16T00:30:55.943Z,25.30
2022-12-16T00:33:24.281Z,25.48
2022-12-16T00:35:51.348Z,24.10
2022-12-16T00:38:18.868Z,26.83
2022-12-16T00:40:45.356Z,21.35
2022-12-16T00:43:11.734Z,24.33
2022-12-16T00:45:39.221Z,22.13
2022-12-16T00:48:06.674Z,19.55
2022-12-16T00:50:33.380Z,18.42
2022-12-16T00:53:00.196Z,19.50
2022-12-16T00:55:27.167Z,22.13
2022-12-16T00:57:53.538Z,19.67
2022-12-16T01:00:22.363Z,21.38
2022-12-16T01:02:50.586Z,19.27
2022-12-16T01:05:20.631Z,17.13
2022-12-16T01:07:47.967Z,17.42
2022-12-16T01:10:14.519Z,21.05
2022-12-16T01:12:40.904Z,18.40
2022-12-16T01:17:47.017Z,20.17
2022-12-16T01:20:14.279Z,20.48
2022-12-16T01:22:42.127Z,20.00
2022-12-16T01:25:11.069Z,22.88
2022-12-16T01:27:37.484Z,23.38
2022-12-16T01:30:04.793Z,19.13
2022-12-16T01:32:31.425Z,18.83
2022-12-16T01:34:58.793Z,21.08
2022-12-16T01:37:25.360Z,19.00
2022-12-16T01:39:52.322Z,19.83
2022-12-16T01:42:21.284Z,19.50
2022-12-16T01:44:52.232Z,19.70
2022-12-16T01:47:32.881Z,19.80
2022-12-16T01:50:01.541Z,21.95
2022-12-16T01:52:36.217Z,17.95
2022-12-16T01:55:09.382Z,19.15
2022-12-16T01:57:51.455Z,22.02
2022-12-16T02:00:22.224Z,18.10
2022-12-16T02:02:49.560Z,21.73
2022-12-16T02:05:20.583Z,25.25
2022-12-16T02:08:14.930Z,24.73
2022-12-16T02:10:44.290Z,20.45
2022-12-16T02:13:47.913Z,22.83
2022-12-16T02:19:10.863Z,19.85
2022-12-16T02:21:49.135Z,29.52
2022-12-16T02:24:45.069Z,23.70
2022-12-16T02:27:30.182Z,24.35
2022-12-16T02:30:06.599Z,27.52
2022-12-16T02:32:51.645Z,23.83
2022-12-16T02:35:38.668Z,29.10
2022-12-16T02:38:36.093Z,24.45
2022-12-16T02:41:12.676Z,23.70
2022-12-16T02:43:50.326Z,25.13
2022-12-16T02:46:19.225Z,25.45
2022-12-16T02:48:45.883Z,23.02
2022-12-16T02:51:12.669Z,27.13
2022-12-16T02:53:42.086Z,25.00
2022-12-16T02:56:36.517Z,26.95
2022-12-16T02:59:38.421Z,24.40
2022-12-16T03:02:16.426Z,28.05
2022-12-16T03:04:52.231Z,29.15
2022-12-16T03:07:22.716Z,28.63
2022-12-16T03:09:51.113Z,24.95
2022-12-16T03:12:20.151Z,25.95
2022-12-16T03:14:50.109Z,24.58
2022-12-16T03:17:18.634Z,26.67
2022-12-16T03:19:53.295Z,26.60
2022-12-16T03:22:27.958Z,26.83
2022-12-16T03:24:54.471Z,30.80
2022-12-16T03:27:28.526Z,29.17
2022-12-16T03:30:24.203Z,29.15
2022-12-16T03:33:03.888Z,24.75
2022-12-16T03:35:39.330Z,26.67
2022-12-16T03:38:10.090Z,28.17
2022-12-16T03:40:41.340Z,30.77
2022-12-16T03:43:09.250Z,24.73
2022-12-16T03:45:41.227Z,23.13
2022-12-16T03:48:12.834Z,29.83
2022-12-16T03:50:40.628Z,35.13
2022-12-16T03:53:07.905Z,29.35
2022-12-16T03:55:35.363Z,31.25
2022-12-16T03:58:01.882Z,30.55
2022-12-16T04:00:28.452Z,29.73
2022-12-16T04:02:55.180Z,30.25
2022-12-16T04:05:22.862Z,31.00
2022-12-16T04:07:49.336Z,36.65
2022-12-16T04:10:16.372Z,32.05
2022-12-16T04:13:01.376Z,31.80
2022-12-16T04:15:46.782Z,31.55
2022-12-16T04:18:37.487Z,31.63
2022-12-16T04:21:23.080Z,32.70
2022-12-16T04:24:11.872Z,30.58
2022-12-16T04:26:57.037Z,26.77
2022-12-16T04:29:24.189Z,33.85
2022-12-16T04:31:52.105Z,37.22
2022-12-16T04:34:29.395Z,36.15
2022-12-16T04:37:20.496Z,30.02
2022-12-16T04:40:06.329Z,32.08
2022-12-16T04:42:52.126Z,31.38
2022-12-16T04:45:37.642Z,30.70
2022-12-16T04:48:23.018Z,30.75
2022-12-16T04:51:07.952Z,27.08
2022-12-16T04:53:53.207Z,27.95
2022-12-16T04:56:38.566Z,33.95
2022-12-16T04:59:37.091Z,29.27
2022-12-16T05:02:21.938Z,22.77
2022-12-16T05:05:07.103Z,29.00
2022-12-16T05:07:51.913Z,26.65
2022-12-16T05:10:36.903Z,25.45
2022-12-16T05:13:21.679Z,29.25
2022-12-16T05:16:06.724Z,26.60
2022-12-16T05:18:51.812Z,23.77
2022-12-16T05:21:36.764Z,25.98
2022-12-16T05:24:21.929Z,25.58
2022-12-16T05:27:06.729Z,29.00
2022-12-16T05:29:51.604Z,24.90
2022-12-16T05:32:36.705Z,29.15
2022-12-16T05:35:21.987Z,30.30
2022-12-16T05:38:07.283Z,29.33
2022-12-16T05:40:52.427Z,26.85
2022-12-16T05:43:37.535Z,27.50
2022-12-16T05:46:22.317Z,28.40
2022-12-16T05:49:07.410Z,28.58
2022-12-16T05:51:52.440Z,29.92
2022-12-16T05:54:37.423Z,28.15
2022-12-16T05:57:22.812Z,25.67
2022-12-16T06:00:07.827Z,28.80
2022-12-16T06:02:52.661Z,26.50
2022-12-16T06:05:37.609Z,26.63
2022-12-16T06:08:23.087Z,29.65
2022-12-16T06:11:08.265Z,26.77
2022-12-16T06:13:53.333Z,28.95
2022-12-16T06:16:38.244Z,29.35
2022-12-16T06:19:23.745Z,29.95
2022-12-16T06:22:08.471Z,30.98
2022-12-16T06:24:53.303Z,34.10
2022-12-16T06:27:38.066Z,31.15
2022-12-16T06:30:23.424Z,35.78
2022-12-16T06:33:08.329Z,30.38
2022-12-16T06:35:53.318Z,32.35
2022-12-16T06:38:38.169Z,35.97
2022-12-16T06:41:23.212Z,34.85
2022-12-16T06:44:08.495Z,33.17
2022-12-16T06:46:53.616Z,34.67
2022-12-16T06:49:38.718Z,35.22
2022-12-16T06:52:23.525Z,35.15
2022-12-16T06:55:08.400Z,33.97
2022-12-16T06:57:53.376Z,33.88
2022-12-16T07:00:38.776Z,36.88
2022-12-16T07:03:24.313Z,37.25
2022-12-16T07:06:13.174Z,37.33
2022-12-16T07:08:58.249Z,35.03
2022-12-16T07:11:43.202Z,35.63
2022-12-16T07:14:28.085Z,41.28
2022-12-16T07:17:17.056Z,34.45
2022-12-16T07:20:02.431Z,36.67
2022-12-16T07:22:47.127Z,37.92
2022-12-16T07:25:31.977Z,31.40
2022-12-16T07:28:16.726Z,32.00
2022-12-16T07:31:02.649Z,31.90
2022-12-16T07:33:47.802Z,35.92
2022-12-16T07:36:33.101Z,34.60
2022-12-16T07:39:18.166Z,36.28
2022-12-16T07:42:02.796Z,29.15
2022-12-16T07:44:47.524Z,35.88
2022-12-16T07:47:32.182Z,33.85
2022-12-16T07:50:16.871Z,36.25
2022-12-16T07:53:01.724Z,35.85
2022-12-16T07:55:46.470Z,37.45
2022-12-16T07:58:31.122Z,32.90
2022-12-16T08:01:15.991Z,37.35
2022-12-16T08:04:00.762Z,38.50
2022-12-16T08:06:45.634Z,39.85
2022-12-16T08:09:30.269Z,36.95
2022-12-16T08:12:15.002Z,43.35
2022-12-16T08:14:59.714Z,39.20
2022-12-16T08:17:44.470Z,41.85
2022-12-16T08:20:29.790Z,39.95
2022-12-16T08:23:14.415Z,42.45
2022-12-16T08:25:59.222Z,38.22
2022-12-16T08:28:43.831Z,36.47
2022-12-16T08:31:28.740Z,36.80
2022-12-16T08:34:13.539Z,37.50
2022-12-16T08:36:58.374Z,41.33
2022-12-16T08:39:43.059Z,38.10
2022-12-16T08:42:27.691Z,37.28
2022-12-16T08:45:12.432Z,39.20
2022-12-16T08:47:57.193Z,36.03
2022-12-16T08:50:41.995Z,38.15
2022-12-16T08:53:27.320Z,35.83
2022-12-16T08:56:12.508Z,36.50
2022-12-16T08:58:57.328Z,34.38
2022-12-16T09:01:42.235Z,37.67
2022-12-16T09:04:27.228Z,37.28
2022-12-16T09:07:11.914Z,35.00
2022-12-16T09:09:56.654Z,40.60
2022-12-16T09:12:41.822Z,41.08
2022-12-16T09:15:27.313Z,38.92
2022-12-16T09:18:15.631Z,41.00
2022-12-16T09:21:00.868Z,38.78
2022-12-16T09:23:46.147Z,40.50
2022-12-16T09:26:31.481Z,41.42
2022-12-16T09:29:16.342Z,39.22
2022-12-16T09:32:01.459Z,42.88
2022-12-16T09:34:46.236Z,42.28
2022-12-16T09:37:30.973Z,42.15
2022-12-16T09:40:15.795Z,40.83
2022-12-16T09:43:09.328Z,44.40
2022-12-16T09:45:57.293Z,39.13
2022-12-16T09:49:11.934Z,39.75
2022-12-16T09:51:58.964Z,38.00
2022-12-16T09:54:48.116Z,41.25
2022-12-16T09:57:33.751Z,41.67
2022-12-16T10:00:25.008Z,38.95
2022-12-16T10:03:10.469Z,39.97
2022-12-16T10:06:09.747Z,38.33
2022-12-16T10:09:05.755Z,40.40
2022-12-16T10:12:20.019Z,39.90
2022-12-16T10:15:17.999Z,40.08
2022-12-16T10:18:04.786Z,40.53
2022-12-16T10:21:02.431Z,37.55
2022-12-16T10:23:56.921Z,40.30
2022-12-16T10:27:43.414Z,37.30
2022-12-16T10:30:33.266Z,33.05
2022-12-16T10:33:18.992Z,37.17
2022-12-16T10:36:15.767Z,39.17
2022-12-16T10:39:08.681Z,36.33
2022-12-16T10:41:56.788Z,35.35
2022-12-16T10:44:41.572Z,33.35
2022-12-16T10:47:28.759Z,35.40
2022-12-16T10:50:13.498Z,36.42
2022-12-16T10:53:37.601Z,36.42
2022-12-16T10:57:05.782Z,35.90
2022-12-16T10:59:59.231Z,31.88
2022-12-16T11:06:01.133Z,33.35
2022-12-16T11:08:55.528Z,37.20
2022-12-16T11:11:43.657Z,37.53
2022-12-16T11:17:54.035Z,32.15
2022-12-16T11:20:43.390Z,34.28
2022-12-16T11:23:38.889Z,29.83
2022-12-16T11:26:33.089Z,26.08
2022-12-16T11:29:20.958Z,28.55
2022-12-16T11:32:13.311Z,25.00
2022-12-16T11:35:00.143Z,25.25
2022-12-16T11:37:47.950Z,25.05
2022-12-16T11:40:35.631Z,28.27
2022-12-16T11:43:24.399Z,25.63
2022-12-16T11:46:11.135Z,21.48
2022-12-16T11:49:25.742Z,25.10
2022-12-16T11:52:36.346Z,20.80
2022-12-16T11:56:06.562Z,20.75
2022-12-16T11:58:48.011Z,24.38
2022-12-16T12:01:45.587Z,20.52
2022-12-16T12:04:32.902Z,19.08
2022-12-16T12:07:45.361Z,20.63
2022-12-16T12:11:09.585Z,18.92
2022-12-16T12:14:06.532Z,21.15
2022-12-16T12:17:04.401Z,19.13
2022-12-16T12:20:06.855Z,15.88
2022-12-16T12:22:57.360Z,17.50
2022-12-16T12:25:57.318Z,15.35
2022-12-16T12:28:53.585Z,17.42
2022-12-16T12:31:52.786Z,19.70
2022-12-16T12:34:58.488Z,17.80
2022-12-16T12:37:52.350Z,18.05
2022-12-16T12:40:59.683Z,18.63
2022-12-16T12:44:15.676Z,20.17
2022-12-16T12:47:04.019Z,21.98
2022-12-16T12:50:02.873Z,19.85
2022-12-16T12:53:09.881Z,21.00
2022-12-16T12:56:08.668Z,20.90
2022-12-16T12:58:56.512Z,17.92
2022-12-16T13:01:48.014Z,18.52
2022-12-16T13:04:36.964Z,20.27
2022-12-16T13:07:23.266Z,19.80
2022-12-16T13:10:43.974Z,18.70
2022-12-16T13:13:52.609Z,20.00
2022-12-16T13:20:04.810Z,18.88
2022-12-16T13:22:52.847Z,18.00
2022-12-16T13:25:58.584Z,19.30
2022-12-16T13:29:03.167Z,19.20
2022-12-16T13:31:49.212Z,19.50
2022-12-16T13:34:34.236Z,22.42
2022-12-16T13:37:28.274Z,21.83
2022-12-16T13:40:32.270Z,18.23
2022-12-16T13:43:23.324Z,18.45
2022-12-16T13:46:18.147Z,20.35
2022-12-16T13:49:03.315Z,19.38
2022-12-16T13:51:57.192Z,21.08
2022-12-16T13:55:11.123Z,18.63
2022-12-16T13:58:01.748Z,18.50
2022-12-16T14:00:47.571Z,20.58
2022-12-16T14:03:46.123Z,20.50
2022-12-16T14:06:38.827Z,21.48
2022-12-16T14:09:36.553Z,13.77
2022-12-16T14:12:29.789Z,20.35
2022-12-16T14:15:24.216Z,18.70
2022-12-16T14:18:43.566Z,17.58
2022-12-16T14:21:34.315Z,18.38
2022-12-16T14:24:46.521Z,19.55
2022-12-16T14:27:41.136Z,18.55
2022-12-16T14:30:35.209Z,19.20
2022-12-16T14:33:41.305Z,23.80
2022-12-16T14:36:46.084Z,28.52
2022-12-16T14:39:42.531Z,29.67
2022-12-16T14:42:45.945Z,29.88
2022-12-16T14:45:46.807Z,28.90
2022-12-16T14:48:46.015Z,33.42
2022-12-16T14:51:53.418Z,32.92
2022-12-16T14:54:44.604Z,32.08
2022-12-16T14:57:50.052Z,30.63
2022-12-16T15:00:40.957Z,28.98
2022-12-16T15:03:52.329Z,30.85
2022-12-16T15:06:48.495Z,31.75
2022-12-16T15:09:57.697Z,32.78
2022-12-16T15:12:46.592Z,32.63
2022-12-16T15:15:44.959Z,33.42
2022-12-16T15:18:36.811Z,32.22
2022-12-16T15:21:22.206Z,38.22
2022-12-16T15:24:07.388Z,32.65
2022-12-16T15:26:53.667Z,35.42
2022-12-16T15:29:59.846Z,34.45
2022-12-16T15:32:44.729Z,34.08
2022-12-16T15:35:44.748Z,41.65
2022-12-16T15:38:45.114Z,45.10
2022-12-16T15:41:38.630Z,41.80
2022-12-16T15:44:23.954Z,40.13
2022-12-16T15:47:08.679Z,37.17
2022-12-16T15:50:03.776Z,41.88
2022-12-16T15:52:49.170Z,37.63
2022-12-16T15:55:48.196Z,37.00
2022-12-16T15:58:46.247Z,35.03
2022-12-16T16:01:34.987Z,39.35
2022-12-16T16:04:20.801Z,44.85
2022-12-16T16:07:11.108Z,40.72
2022-12-16T16:09:58.569Z,43.03
2022-12-16T16:12:44.428Z,41.80
2022-12-16T16:15:32.585Z,48.20
2022-12-16T16:18:21.388Z,43.13
2022-12-16T16:21:07.057Z,44.28
2022-12-16T16:23:52.276Z,40.63
2022-12-16T16:26:40.420Z,46.00
2022-12-16T16:29:27.593Z,44.13
2022-12-16T16:32:12.773Z,43.22
2022-12-16T16:34:57.613Z,45.35
2022-12-16T16:37:42.486Z,45.63
2022-12-16T16:40:49.767Z,38.10
2022-12-16T16:43:35.911Z,37.83
2022-12-16T16:46:31.512Z,41.17
2022-12-16T16:49:16.903Z,33.25
2022-12-16T16:52:01.806Z,34.35
2022-12-16T16:54:47.130Z,37.78
2022-12-16T16:57:32.440Z,37.75
2022-12-16T17:00:17.876Z,35.10
2022-12-16T17:03:03.429Z,32.30
2022-12-16T17:05:48.501Z,31.55
2022-12-16T17:08:33.591Z,32.47
2022-12-16T17:11:18.590Z,31.02
2022-12-16T17:14:03.404Z,30.15
2022-12-16T17:16:48.212Z,25.70
2022-12-16T17:19:33.100Z,28.92
2022-12-16T17:22:17.877Z,27.88
2022-12-16T17:25:02.896Z,32.72
2022-12-16T17:27:47.904Z,27.98
2022-12-16T17:30:44.925Z,30.38
2022-12-16T17:33:32.488Z,27.85
2022-12-16T17:36:18.103Z,30.48
2022-12-16T17:39:03.520Z,26.27
2022-12-16T17:41:50.772Z,28.95
2022-12-16T17:44:36.803Z,32.47
2022-12-16T17:47:22.644Z,27.35
2022-12-16T17:50:07.494Z,25.63
2022-12-16T17:52:52.479Z,32.65
2022-12-16T17:55:37.536Z,30.02
2022-12-16T17:58:22.215Z,29.27
2022-12-16T18:01:06.971Z,32.05
2022-12-16T18:03:52.331Z,30.80
2022-12-16T18:06:39.172Z,29.90
2022-12-16T18:09:24.598Z,29.48
2022-12-16T18:12:09.572Z,32.17
2022-12-16T18:14:54.445Z,27.95
2022-12-16T18:17:39.481Z,30.00
2022-12-16T18:20:24.746Z,33.47
2022-12-16T18:23:12.865Z,31.88
2022-12-16T18:25:58.282Z,31.42
2022-12-16T18:28:43.490Z,30.35
2022-12-16T18:31:28.980Z,33.53
2022-12-16T18:34:13.947Z,30.45
2022-12-16T18:36:59.166Z,31.70
2022-12-16T18:39:44.124Z,34.88
2022-12-16T18:42:29.325Z,31.42
2022-12-16T18:45:14.436Z,31.10
2022-12-16T18:47:59.226Z,33.38
2022-12-16T18:50:44.201Z,28.25
2022-12-16T18:53:29.322Z,28.45
2022-12-16T18:56:19.139Z,30.52
2022-12-16T18:59:04.059Z,28.10
2022-12-16T19:01:49.071Z,31.88
2022-12-16T19:04:34.259Z,29.70
2022-12-16T19:07:19.205Z,29.27
2022-12-16T19:10:04.100Z,29.27
2022-12-16T19:12:49.566Z,28.50
2022-12-16T19:15:39.503Z,24.15
2022-12-16T19:18:26.235Z,26.30
2022-12-16T19:21:12.421Z,28.38
2022-12-16T19:23:57.238Z,27.73
2022-12-16T19:26:42.514Z,24.35
2022-12-16T19:29:27.572Z,23.83
2022-12-16T19:32:12.669Z,22.92
2022-12-16T19:34:57.576Z,28.98
2022-12-16T19:37:42.358Z,22.10
2022-12-16T19:40:28.575Z,21.45
2022-12-16T19:43:13.387Z,22.52
2022-12-16T19:45:58.204Z,24.08
2022-12-16T19:48:43.611Z,24.17
2022-12-16T19:51:28.410Z,24.13
2022-12-16T19:54:13.221Z,28.15
2022-12-16T19:56:57.800Z,22.67
2022-12-16T19:59:42.636Z,25.13
2022-12-16T20:02:30.700Z,27.85
2022-12-16T20:05:16.368Z,22.63
2022-12-16T20:08:01.317Z,21.15
2022-12-16T20:10:46.258Z,27.25
2022-12-16T20:13:32.073Z,25.67
2022-12-16T20:16:21.573Z,25.17
2022-12-16T20:19:06.917Z,25.95
2022-12-16T20:21:56.182Z,22.23
2022-12-16T20:24:41.800Z,24.33
2022-12-16T20:27:27.088Z,22.08
2022-12-16T20:30:11.845Z,22.27
2022-12-16T20:32:56.620Z,23.70
2022-12-16T20:35:41.467Z,22.67
2022-12-16T20:38:27.148Z,19.52
2022-12-16T20:41:16.761Z,24.90
2022-12-16T20:44:02.081Z,23.27
2022-12-16T20:46:49.272Z,21.85
2022-12-16T20:49:34.339Z,23.08
2022-12-16T20:52:19.371Z,22.40
2022-12-16T20:55:04.273Z,22.60
2022-12-16T20:57:49.691Z,22.63
2022-12-16T21:00:35.284Z,22.80
2022-12-16T21:03:19.977Z,20.92
2022-12-16T21:06:05.444Z,23.25
2022-12-16T21:08:50.148Z,22.35
2022-12-16T21:11:35.024Z,26.52
2022-12-16T21:14:19.736Z,24.60
2022-12-16T21:17:04.614Z,23.90
2022-12-16T21:19:49.462Z,22.38
2022-12-16T21:22:34.358Z,23.20
2022-12-16T21:25:24.478Z,24.38
2022-12-16T21:28:13.801Z,27.02
2022-12-16T21:30:58.481Z,23.65
2022-12-16T21:33:43.635Z,23.02
2022-12-16T21:36:45.758Z,23.35
2022-12-16T21:39:30.894Z,23.67
2022-12-16T21:42:16.078Z,27.23
2022-12-16T21:45:00.898Z,26.70
2022-12-16T21:47:45.570Z,24.70
2022-12-16T21:50:30.319Z,20.63
2022-12-16T21:53:15.315Z,23.80
2022-12-16T21:56:00.247Z,23.90
2022-12-16T21:58:44.974Z,26.25
2022-12-16T22:01:29.840Z,25.38
2022-12-16T22:04:14.912Z,25.75
2022-12-16T22:06:59.784Z,23.50
2022-12-16T22:09:44.650Z,23.40
2022-12-16T22:12:29.525Z,22.00
2022-12-16T22:15:14.252Z,25.08
2022-12-16T22:17:59.072Z,26.98
2022-12-16T22:20:44.825Z,22.35
2022-12-16T22:23:29.681Z,23.77
2022-12-16T22:26:16.070Z,19.55
2022-12-16T22:29:00.840Z,25.88
2022-12-16T22:31:46.130Z,21.15
2022-12-16T22:34:31.321Z,21.75
2022-12-16T22:37:16.066Z,23.77
2022-12-16T22:40:00.882Z,25.77
2022-12-16T22:42:46.010Z,26.35
2022-12-16T22:45:31.041Z,37.45
2022-12-16T22:48:15.686Z,35.58
2022-12-16T22:51:00.660Z,38.53
2022-12-16T22:53:45.789Z,32.92
2022-12-16T22:56:31.099Z,26.10
2022-12-16T22:59:16.078Z,25.75
2022-12-16T23:02:01.315Z,24.75
2022-12-16T23:04:46.439Z,27.50
2022-12-16T23:07:31.675Z,32.15
2022-12-16T23:10:16.973Z,31.70
2022-12-16T23:13:01.691Z,31.77
2022-12-16T23:15:46.695Z,27.55
2022-12-16T23:18:31.811Z,32.70
2022-12-16T23:21:16.743Z,33.60
2022-12-16T23:24:01.417Z,35.17
2022-12-16T23:26:46.366Z,36.92
2022-12-16T23:29:31.387Z,30.60
2022-12-16T23:32:16.221Z,33.47
2022-12-16T23:35:00.944Z,34.78
2022-12-16T23:37:45.737Z,35.00
2022-12-16T23:40:30.972Z,37.15
2022-12-16T23:43:15.770Z,35.47
2022-12-16T23:46:02.273Z,51.05
2022-12-16T23:48:47.468Z,86.82
2022-12-16T23:51:32.125Z,108.20
2022-12-16T23:54:16.900Z,84.25
2022-12-16T23:57:01.600Z,49.33
2022-12-16T23:59:46.557Z,73.70
